Time;durP1;ratioP1;P1;durP2;ratioP2;P2;SDS_P1;SDS_P2;PMS_P1;PMS_P2;Temp;Humidity;BMP_temperature;BMP_pressure;BME280_temperature;BME280_humidity;BME280_pressure;Samples;Min_cycle;Max_cycle;Signal;HPM_P1;HPM_P2
2023/04/15 00:00:36;;;;;;;8.15;5.78;;;7.60;99.90;;;;;;5128025;27;20495;-39
2023/04/15 00:03:01;;;;;;;10.02;6.65;;;7.60;99.90;;;;;;5093871;28;20629;-39
2023/04/15 00:05:29;;;;;;;8.95;6.45;;;7.60;99.90;;;;;;5089632;28;20154;-39
2023/04/15 00:07:54;;;;;;;12.35;7.65;;;7.60;99.90;;;;;;5108190;28;20027;-39
2023/04/15 00:10:20;;;;;;;11.65;7.40;;;7.60;99.90;;;;;;5108448;28;20031;-39
2023/04/15 00:12:45;;;;;;;10.18;6.97;;;7.50;99.90;;;;;;5108645;28;20020;-39
2023/04/15 00:15:11;;;;;;;13.38;7.60;;;7.50;99.90;;;;;;5108257;28;20041;-39
2023/04/15 00:17:38;;;;;;;10.73;7.40;;;7.50;99.90;;;;;;5107659;28;20020;-39
2023/04/15 00:20:05;;;;;;;13.55;7.97;;;7.50;99.90;;;;;;5090105;28;20023;-39
2023/04/15 00:22:31;;;;;;;11.85;7.15;;;7.50;99.90;;;;;;5108053;28;20421;-39
2023/04/15 00:24:57;;;;;;;11.15;7.22;;;7.50;99.90;;;;;;5108058;28;20058;-39
2023/04/15 00:27:22;;;;;;;11.80;8.15;;;7.50;99.90;;;;;;5109450;27;20412;-39
2023/04/15 00:29:48;;;;;;;12.05;7.50;;;7.50;99.90;;;;;;5122263;27;20023;-40
2023/04/15 00:32:14;;;;;;;9.70;7.50;;;7.50;99.90;;;;;;5115878;27;20545;-39
2023/04/15 00:34:39;;;;;;;12.48;8.20;;;7.50;99.90;;;;;;5108354;28;20011;-39
2023/04/15 00:37:05;;;;;;;10.10;7.35;;;7.50;99.90;;;;;;5089474;28;20019;-39
2023/04/15 00:39:30;;;;;;;13.32;8.15;;;7.50;99.90;;;;;;5099287;28;20022;-39
2023/04/15 00:41:56;;;;;;;11.43;7.78;;;7.50;99.90;;;;;;5107682;28;20023;-39
2023/04/15 00:44:22;;;;;;;13.77;8.07;;;7.50;99.90;;;;;;5107358;28;20091;-39
2023/04/15 00:46:50;;;;;;;11.73;7.72;;;7.50;99.90;;;;;;5107090;28;20138;-39
2023/04/15 00:49:17;;;;;;;11.98;8.05;;;7.50;99.90;;;;;;5106766;28;20535;-39
2023/04/15 00:51:43;;;;;;;10.70;7.63;;;7.50;99.90;;;;;;5107349;28;20027;-39
2023/04/15 00:54:09;;;;;;;13.40;8.18;;;7.50;99.90;;;;;;5107942;28;20016;-39
2023/04/15 00:56:37;;;;;;;13.80;8.65;;;7.40;99.90;;;;;;5107975;28;20026;-39
2023/04/15 00:59:03;;;;;;;12.35;8.15;;;7.40;99.90;;;;;;5123061;27;20107;-39
2023/04/15 01:01:30;;;;;;;13.75;8.38;;;7.40;99.90;;;;;;5124540;27;20027;-39
2023/04/15 01:03:59;;;;;;;12.80;9.38;;;7.40;99.90;;;;;;5107636;28;20034;-39
2023/04/15 01:06:26;;;;;;;15.55;9.25;;;7.40;99.90;;;;;;5107446;28;20027;-39
2023/04/15 01:08:53;;;;;;;13.55;9.23;;;7.40;99.90;;;;;;5106747;28;20024;-39
2023/04/15 01:11:18;;;;;;;14.18;9.55;;;7.40;99.90;;;;;;5105155;28;20031;-39
2023/04/15 01:13:45;;;;;;;17.25;10.02;;;7.40;99.90;;;;;;5128225;27;20015;-38
2023/04/15 01:16:12;;;;;;;16.65;9.23;;;7.40;99.90;;;;;;5118289;27;20019;-39
2023/04/15 01:18:38;;;;;;;15.45;9.52;;;7.40;99.90;;;;;;5106702;28;20022;-38
2023/04/15 01:21:04;;;;;;;14.93;9.65;;;7.40;99.90;;;;;;5106771;28;20281;-39
2023/04/15 01:23:31;;;;;;;16.30;10.23;;;7.40;99.90;;;;;;5106705;28;20106;-39
2023/04/15 01:25:58;;;;;;;14.52;9.75;;;7.30;99.90;;;;;;5106768;28;20030;-39
2023/04/15 01:28:24;;;;;;;16.75;9.77;;;7.40;99.90;;;;;;5116904;28;20088;-39
2023/04/15 01:30:50;;;;;;;17.33;10.30;;;7.40;99.90;;;;;;5127128;27;20346;-39
2023/04/15 01:33:15;;;;;;;20.83;11.20;;;7.40;99.90;;;;;;5109125;28;20031;-39
2023/04/15 01:35:43;;;;;;;15.95;10.68;;;7.40;99.90;;;;;;5088302;28;20018;-39
2023/04/15 01:38:10;;;;;;;16.65;10.48;;;7.40;99.90;;;;;;5106494;28;20384;-40
2023/04/15 01:40:35;;;;;;;16.88;10.63;;;7.40;99.90;;;;;;5109590;28;20023;-39
2023/04/15 01:43:02;;;;;;;15.35;10.05;;;7.30;99.90;;;;;;5110842;28;20030;-39
2023/04/15 01:45:28;;;;;;;14.68;9.38;;;7.30;99.90;;;;;;5111050;28;20019;-39
2023/04/15 01:47:54;;;;;;;17.25;10.27;;;7.30;99.90;;;;;;5110502;28;20047;-39
2023/04/15 01:50:20;;;;;;;17.88;11.15;;;7.40;99.90;;;;;;5110610;28;20066;-38
2023/04/15 01:52:47;;;;;;;16.05;10.57;;;7.30;99.90;;;;;;5110766;28;20026;-39
2023/04/15 01:55:13;;;;;;;19.92;10.65;;;7.30;99.90;;;;;;5110785;28;20031;-40
2023/04/15 01:57:39;;;;;;;17.67;11.13;;;7.30;99.90;;;;;;5114543;27;20042;-39
2023/04/15 02:00:06;;;;;;;16.17;10.23;;;7.30;99.90;;;;;;5130934;27;20361;-38
2023/04/15 02:02:32;;;;;;;20.60;10.57;;;7.30;99.90;;;;;;5100271;28;20101;-39
2023/04/15 02:04:58;;;;;;;14.88;9.63;;;7.40;99.90;;;;;;5110443;28;20439;-40
2023/04/15 02:07:23;;;;;;;16.10;10.77;;;7.40;99.90;;;;;;5110610;28;20081;-39
2023/04/15 02:09:49;;;;;;;16.23;10.65;;;7.30;99.90;;;;;;5110745;28;20055;-39
2023/04/15 02:12:14;;;;;;;14.00;9.90;;;7.30;99.90;;;;;;5110251;28;20032;-40
2023/04/15 02:14:40;;;;;;;18.23;10.93;;;7.30;99.90;;;;;;5110327;28;20084;-39
2023/04/15 02:17:07;;;;;;;17.83;10.50;;;7.30;99.90;;;;;;5091608;28;20393;-39
2023/04/15 02:19:35;;;;;;;19.13;10.32;;;7.30;99.90;;;;;;5110242;28;20081;-39
2023/04/15 02:22:01;;;;;;;17.52;10.18;;;7.30;99.90;;;;;;5109104;28;20047;-39
2023/04/15 02:24:27;;;;;;;18.33;10.82;;;7.30;99.90;;;;;;5129705;27;20058;-39
2023/04/15 02:26:53;;;;;;;16.83;10.68;;;7.20;99.90;;;;;;5105399;28;20537;-39
2023/04/15 02:29:18;;;;;;;16.95;10.15;;;7.30;99.90;;;;;;5128314;27;20121;-39
2023/04/15 02:31:44;;;;;;;18.42;10.52;;;7.30;99.90;;;;;;5125720;27;20419;-39
2023/04/15 02:34:10;;;;;;;17.60;10.38;;;7.30;99.90;;;;;;5110356;28;20530;-39
2023/04/15 02:36:36;;;;;;;17.95;10.90;;;7.30;99.90;;;;;;5110171;28;20028;-39
2023/04/15 02:39:02;;;;;;;15.70;10.02;;;7.30;99.90;;;;;;5109867;28;20540;-39
2023/04/15 02:41:28;;;;;;;17.60;9.95;;;7.30;99.90;;;;;;5109870;28;20496;-39
2023/04/15 02:43:54;;;;;;;15.02;9.05;;;7.30;99.90;;;;;;5110264;28;20027;-38
2023/04/15 02:46:21;;;;;;;15.10;9.60;;;7.30;99.90;;;;;;5117874;27;20072;-38
2023/04/15 02:48:47;;;;;;;15.70;9.23;;;7.30;99.90;;;;;;5130475;27;20492;-39
2023/04/15 02:51:21;;;;;;;15.43;8.93;;;7.30;99.90;;;;;;5112208;27;20557;-38
2023/04/15 02:53:47;;;;;;;17.25;9.82;;;7.30;99.90;;;;;;5110159;28;20473;-38
2023/04/15 02:56:14;;;;;;;16.92;10.00;;;7.30;99.90;;;;;;5109807;28;20097;-38
2023/04/15 02:58:40;;;;;;;15.05;8.77;;;7.30;99.90;;;;;;5110039;28;20537;-38
2023/04/15 03:01:07;;;;;;;15.13;9.10;;;7.30;99.90;;;;;;5109620;28;20059;-38
2023/04/15 03:03:33;;;;;;;17.58;10.02;;;7.40;99.90;;;;;;5101617;28;20019;-38
2023/04/15 03:05:59;;;;;;;15.80;9.40;;;7.40;99.90;;;;;;5110140;28;20027;-38
2023/04/15 03:08:24;;;;;;;14.13;8.73;;;7.30;99.90;;;;;;5109086;28;20027;-38
2023/04/15 03:10:51;;;;;;;16.27;10.20;;;7.40;99.90;;;;;;5109148;28;20011;-38
2023/04/15 03:13:17;;;;;;;16.70;9.57;;;7.30;99.90;;;;;;5110065;28;20019;-38
2023/04/15 03:15:45;;;;;;;14.02;9.30;;;7.40;99.90;;;;;;5095144;27;20422;-38
2023/04/15 03:18:11;;;;;;;16.83;10.20;;;7.30;99.90;;;;;;5129704;27;20023;-38
2023/04/15 03:20:36;;;;;;;15.07;9.18;;;7.20;99.90;;;;;;5117312;27;20035;-38
2023/04/15 03:23:02;;;;;;;15.13;9.32;;;7.20;99.90;;;;;;5109528;28;20248;-38
2023/04/15 03:25:27;;;;;;;14.45;9.00;;;7.20;99.90;;;;;;5109230;28;20023;-44
2023/04/15 03:27:53;;;;;;;18.92;9.88;;;7.20;99.90;;;;;;5108780;28;20028;-39
2023/04/15 03:30:19;;;;;;;21.83;11.02;;;7.20;99.90;;;;;;5108796;28;20020;-39
2023/04/15 03:32:44;;;;;;;21.20;11.43;;;7.30;99.90;;;;;;5109365;28;20019;-38
2023/04/15 03:35:10;;;;;;;19.75;10.65;;;7.30;99.90;;;;;;5109578;28;20227;-38
2023/04/15 03:37:36;;;;;;;23.05;12.70;;;7.30;99.90;;;;;;5109046;28;20030;-38
2023/04/15 03:40:01;;;;;;;19.50;11.52;;;7.20;99.90;;;;;;5108703;28;20016;-39
2023/04/15 03:42:27;;;;;;;17.30;11.25;;;7.20;99.90;;;;;;5090495;28;20055;-39
2023/04/15 03:44:52;;;;;;;20.42;11.10;;;7.20;99.90;;;;;;5109150;28;20055;-38
2023/04/15 03:47:18;;;;;;;21.10;11.63;;;7.20;99.90;;;;;;5125060;27;20384;-38
2023/04/15 03:49:43;;;;;;;22.55;12.77;;;7.20;99.90;;;;;;5123796;27;20604;-38
2023/04/15 03:52:09;;;;;;;23.70;12.20;;;7.20;99.90;;;;;;5128333;27;20452;-38
2023/04/15 03:54:34;;;;;;;21.35;12.38;;;7.20;99.90;;;;;;5116859;27;20087;-38
2023/04/15 03:57:00;;;;;;;22.95;12.18;;;7.20;99.90;;;;;;5108677;28;20026;-38
2023/04/15 03:59:26;;;;;;;22.20;12.73;;;7.20;99.90;;;;;;5107962;28;20038;-38
2023/04/15 04:01:51;;;;;;;23.05;12.68;;;7.20;99.90;;;;;;5107991;28;20023;-38
2023/04/15 04:04:17;;;;;;;20.80;12.30;;;7.10;99.90;;;;;;5108411;28;20027;-39
2023/04/15 04:06:42;;;;;;;22.65;12.63;;;7.20;99.90;;;;;;5108414;28;20031;-38
2023/04/15 04:09:08;;;;;;;20.77;11.93;;;7.10;99.90;;;;;;5107926;28;20072;-38
2023/04/15 04:11:34;;;;;;;20.73;11.68;;;7.10;99.90;;;;;;5106611;28;20055;-39
2023/04/15 04:13:59;;;;;;;22.35;12.60;;;7.20;99.90;;;;;;5108594;28;20046;-39
2023/04/15 04:16:25;;;;;;;22.25;13.43;;;7.20;99.90;;;;;;5108387;28;20740;-39
2023/04/15 04:18:50;;;;;;;21.63;12.48;;;7.10;99.90;;;;;;5108270;28;20385;-39
2023/04/15 04:21:16;;;;;;;24.70;14.30;;;7.10;99.90;;;;;;5101775;27;20031;-39
2023/04/15 04:23:42;;;;;;;23.92;13.05;;;7.10;99.90;;;;;;5123469;27;20059;-39
2023/04/15 04:26:07;;;;;;;21.98;12.77;;;7.20;99.90;;;;;;5108406;28;20024;-39
2023/04/15 04:28:34;;;;;;;21.95;12.68;;;7.10;99.90;;;;;;5107922;28;20036;-39
2023/04/15 04:30:59;;;;;;;21.92;12.20;;;7.20;99.90;;;;;;5107953;28;20015;-39
2023/04/15 04:33:25;;;;;;;21.13;13.05;;;7.10;99.90;;;;;;5088988;28;20028;-39
2023/04/15 04:35:50;;;;;;;22.08;12.52;;;7.10;99.90;;;;;;5107491;28;20068;-39
2023/04/15 04:38:16;;;;;;;20.77;12.70;;;7.20;99.90;;;;;;5107042;28;20522;-38
2023/04/15 04:40:41;;;;;;;22.60;12.25;;;7.20;99.90;;;;;;5107330;28;20024;-38
2023/04/15 04:43:08;;;;;;;22.98;13.05;;;7.10;99.90;;;;;;5107438;28;20045;-38
2023/04/15 04:45:33;;;;;;;22.67;12.65;;;7.10;99.90;;;;;;5107633;28;20015;-38
2023/04/15 04:47:59;;;;;;;25.40;13.23;;;7.10;99.90;;;;;;5089165;28;20452;-39
2023/04/15 04:50:24;;;;;;;25.33;14.05;;;7.10;99.90;;;;;;5112161;27;20080;-39
2023/04/15 04:52:50;;;;;;;22.05;11.80;;;7.10;99.90;;;;;;5127908;27;20150;-38
2023/04/15 04:55:16;;;;;;;24.30;13.05;;;7.10;99.90;;;;;;5110391;27;20039;-39
2023/04/15 04:57:41;;;;;;;26.15;13.90;;;7.10;99.90;;;;;;5107661;28;20023;-39
2023/04/15 05:00:07;;;;;;;23.70;13.32;;;7.10;99.90;;;;;;5107700;28;20141;-39
2023/04/15 05:02:33;;;;;;;25.52;13.98;;;7.10;99.90;;;;;;5107580;28;20333;-39
2023/04/15 05:04:59;;;;;;;21.02;11.32;;;7.10;99.90;;;;;;5107502;28;20152;-39
2023/04/15 05:07:24;;;;;;;23.80;12.13;;;7.10;99.90;;;;;;5106872;28;20027;-39
2023/04/15 05:09:50;;;;;;;22.75;13.10;;;7.10;99.90;;;;;;5107214;28;20109;-38
2023/04/15 05:12:17;;;;;;;21.65;11.45;;;7.10;99.90;;;;;;5107014;28;20454;-38
2023/04/15 05:14:42;;;;;;;20.55;12.77;;;7.20;99.90;;;;;;5107182;28;20377;-38
2023/04/15 05:17:08;;;;;;;21.60;12.27;;;7.10;99.90;;;;;;5106903;28;20026;-38
2023/04/15 05:19:34;;;;;;;20.08;10.98;;;7.20;99.90;;;;;;5106972;28;20015;-38
2023/04/15 05:21:59;;;;;;;16.38;10.25;;;7.20;99.90;;;;;;5125508;28;20595;-39
2023/04/15 05:24:26;;;;;;;21.13;11.55;;;7.20;99.90;;;;;;5116421;28;20012;-39
2023/04/15 05:26:51;;;;;;;19.45;10.45;;;7.20;99.90;;;;;;5106808;28;20012;-39
2023/04/15 05:29:17;;;;;;;17.95;10.82;;;7.20;99.90;;;;;;5106644;28;20088;-39
2023/04/15 05:31:42;;;;;;;20.17;11.07;;;7.20;99.90;;;;;;5106741;28;20037;-39
2023/04/15 05:34:09;;;;;;;15.63;9.75;;;7.20;99.90;;;;;;5107070;28;20045;-39
2023/04/15 05:36:34;;;;;;;19.88;10.05;;;7.20;99.90;;;;;;5106397;28;20023;-39
2023/04/15 05:39:00;;;;;;;17.92;10.30;;;7.30;99.90;;;;;;5106258;28;20354;-39
2023/04/15 05:41:26;;;;;;;18.35;9.68;;;7.30;99.90;;;;;;5088277;28;20050;-39
2023/04/15 05:43:51;;;;;;;18.00;9.50;;;7.30;99.90;;;;;;5106721;28;20045;-40
2023/04/15 05:46:17;;;;;;;17.45;8.40;;;7.30;99.90;;;;;;5106817;28;20035;-39
2023/04/15 05:48:42;;;;;;;15.82;8.88;;;7.30;99.90;;;;;;5087821;28;20024;-39
2023/04/15 05:51:08;;;;;;;13.52;8.63;;;7.30;99.90;;;;;;5117534;28;20021;-39
2023/04/15 05:53:34;;;;;;;15.60;8.45;;;7.40;99.90;;;;;;5137985;27;20377;-39
2023/04/15 05:56:00;;;;;;;12.82;7.80;;;7.40;99.90;;;;;;5106633;28;20020;-39
2023/04/15 05:58:25;;;;;;;15.52;8.07;;;7.40;99.90;;;;;;5106267;28;20054;-39
2023/04/15 06:00:51;;;;;;;12.77;7.70;;;7.40;99.90;;;;;;5106234;28;20024;-39
2023/04/15 06:03:17;;;;;;;12.52;7.00;;;7.40;99.90;;;;;;5106525;28;20047;-39
2023/04/15 06:05:43;;;;;;;11.82;7.05;;;7.40;99.90;;;;;;5106296;28;20188;-39
2023/04/15 06:08:09;;;;;;;12.15;7.20;;;7.40;99.90;;;;;;5106184;28;20049;-39
2023/04/15 06:10:35;;;;;;;11.63;6.88;;;7.40;99.90;;;;;;5106529;28;20023;-39
2023/04/15 06:13:04;;;;;;;10.48;6.05;;;7.50;99.90;;;;;;5088703;28;20026;-39
2023/04/15 06:15:30;;;;;;;9.23;6.15;;;7.50;99.90;;;;;;5106686;28;20030;-39
2023/04/15 06:17:56;;;;;;;11.38;7.35;;;7.50;99.90;;;;;;5106563;28;20024;-39
2023/04/15 06:20:22;;;;;;;9.68;6.50;;;7.60;99.90;;;;;;5111154;28;20087;-39
2023/04/15 06:22:48;;;;;;;11.18;7.15;;;7.60;99.90;;;;;;5126804;28;20080;-39
2023/04/15 06:25:13;;;;;;;10.90;6.15;;;7.60;99.90;;;;;;5109698;28;20035;-39
2023/04/15 06:27:39;;;;;;;11.43;6.93;;;7.60;99.90;;;;;;5110261;28;20088;-39
2023/04/15 06:30:05;;;;;;;11.52;6.90;;;7.60;99.90;;;;;;5110240;28;20107;-39
2023/04/15 06:32:32;;;;;;;10.00;6.65;;;7.70;99.90;;;;;;5110065;28;20015;-39
2023/04/15 06:34:57;;;;;;;10.70;6.90;;;7.70;99.90;;;;;;5110317;28;20038;-38
2023/04/15 06:37:23;;;;;;;8.90;6.60;;;7.70;99.90;;;;;;5109625;28;20012;-38
2023/04/15 06:39:48;;;;;;;10.75;7.00;;;7.70;99.90;;;;;;5109794;28;20049;-38
2023/04/15 06:42:14;;;;;;;10.18;6.38;;;7.70;99.90;;;;;;5091784;28;20027;-38
2023/04/15 06:44:40;;;;;;;10.45;6.60;;;7.70;99.90;;;;;;5110336;28;20099;-39
2023/04/15 06:47:05;;;;;;;12.45;8.02;;;7.80;99.90;;;;;;5110360;28;20072;-38
2023/04/15 06:49:31;;;;;;;11.95;8.00;;;7.80;99.90;;;;;;5109492;28;20019;-38
2023/04/15 06:51:56;;;;;;;10.20;7.57;;;7.80;99.90;;;;;;5126780;27;20093;-39
2023/04/15 06:54:22;;;;;;;11.25;6.80;;;7.80;99.90;;;;;;5119768;27;20099;-39
2023/04/15 06:56:47;;;;;;;10.02;7.47;;;7.80;99.90;;;;;;5110075;28;20574;-39
2023/04/15 06:59:13;;;;;;;11.32;7.13;;;7.90;99.90;;;;;;5109410;28;20344;-39
2023/04/15 07:01:42;;;;;;;10.05;7.22;;;7.90;99.90;;;;;;5106740;27;20046;-39
2023/04/15 07:04:08;;;;;;;12.18;7.72;;;7.90;99.90;;;;;;5121263;27;20215;-39
2023/04/15 07:06:34;;;;;;;10.77;7.10;;;7.90;99.90;;;;;;5124216;27;20114;-39
2023/04/15 07:09:00;;;;;;;12.10;6.97;;;8.00;99.90;;;;;;5121582;27;20011;-39
2023/04/15 07:11:26;;;;;;;13.13;8.13;;;8.00;99.90;;;;;;5116375;27;20642;-39
2023/04/15 07:13:51;;;;;;;12.70;8.15;;;8.00;99.90;;;;;;5111121;27;20444;-39
2023/04/15 07:16:17;;;;;;;11.10;7.88;;;8.00;99.90;;;;;;5110805;27;20016;-39
2023/04/15 07:18:42;;;;;;;11.73;7.47;;;8.10;99.90;;;;;;5107999;28;20028;-39
2023/04/15 07:21:08;;;;;;;11.82;7.82;;;8.10;99.90;;;;;;5108457;28;20471;-39
2023/04/15 07:23:34;;;;;;;11.02;7.07;;;8.10;99.90;;;;;;5108335;28;20444;-39
2023/04/15 07:26:00;;;;;;;12.32;7.05;;;8.10;99.90;;;;;;5108589;28;20019;-39
2023/04/15 07:28:26;;;;;;;11.05;7.10;;;8.10;99.90;;;;;;5108306;28;20031;-38
2023/04/15 07:30:51;;;;;;;13.90;8.65;;;8.20;99.90;;;;;;5108778;28;20019;-39
2023/04/15 07:33:17;;;;;;;12.45;8.57;;;8.20;99.90;;;;;;5108508;28;20028;-38
2023/04/15 07:35:42;;;;;;;13.77;8.35;;;8.20;99.90;;;;;;5108891;28;20026;-38
2023/04/15 07:38:08;;;;;;;13.68;8.77;;;8.20;99.90;;;;;;5107138;28;20090;-38
2023/04/15 07:40:33;;;;;;;17.00;9.77;;;8.30;99.90;;;;;;5108278;28;20023;-38
2023/04/15 07:42:59;;;;;;;17.75;10.90;;;8.30;99.90;;;;;;5108496;28;20156;-38
2023/04/15 07:45:24;;;;;;;15.75;10.40;;;8.20;99.90;;;;;;5108997;28;20049;-38
2023/04/15 07:47:50;;;;;;;16.90;9.82;;;8.30;99.90;;;;;;5108135;28;20411;-38
2023/04/15 07:50:16;;;;;;;19.58;9.68;;;8.30;99.90;;;;;;5108162;28;20031;-38
2023/04/15 07:52:42;;;;;;;19.05;11.45;;;8.30;99.90;;;;;;5108194;28;20016;-38
2023/04/15 07:55:08;;;;;;;17.77;11.82;;;8.40;99.90;;;;;;5108238;28;20710;-38
2023/04/15 07:57:35;;;;;;;18.73;11.98;;;8.40;99.90;;;;;;5107604;28;20027;-38
2023/04/15 08:00:02;;;;;;;26.17;14.35;;;8.40;99.90;;;;;;5089438;28;20031;-38
2023/04/15 08:02:28;;;;;;;25.75;14.07;;;8.50;99.90;;;;;;5108119;28;20032;-38
2023/04/15 08:04:53;;;;;;;22.98;12.90;;;8.50;99.90;;;;;;5108349;28;20080;-38
2023/04/15 08:07:20;;;;;;;27.88;15.23;;;8.50;99.90;;;;;;5089454;28;20054;-38
2023/04/15 08:09:45;;;;;;;30.83;16.73;;;8.60;99.90;;;;;;5107859;28;20023;-39
2023/04/15 08:12:12;;;;;;;34.13;17.50;;;8.60;99.90;;;;;;5107723;28;20008;-39
2023/04/15 08:14:38;;;;;;;35.58;19.50;;;8.60;99.90;;;;;;5107767;28;20043;-38
2023/04/15 08:17:04;;;;;;;34.58;17.90;;;8.70;99.90;;;;;;5107690;28;20058;-38
2023/04/15 08:19:30;;;;;;;33.42;19.40;;;8.70;99.90;;;;;;5107606;28;20567;-38
2023/04/15 08:21:55;;;;;;;35.67;20.27;;;8.70;99.90;;;;;;5108083;28;20019;-39
2023/04/15 08:24:21;;;;;;;46.10;24.50;;;8.80;99.90;;;;;;5106752;28;20084;-38
2023/04/15 08:26:47;;;;;;;52.65;28.00;;;8.80;99.90;;;;;;5107500;28;20025;-39
2023/04/15 08:29:12;;;;;;;47.03;25.77;;;8.80;99.90;;;;;;5107121;28;20423;-38
2023/04/15 08:31:38;;;;;;;47.95;23.08;;;8.80;99.90;;;;;;5107628;28;20031;-38
2023/04/15 08:34:04;;;;;;;38.85;21.55;;;8.80;99.90;;;;;;5105582;27;20055;-39
2023/04/15 08:36:31;;;;;;;47.75;25.20;;;8.80;99.90;;;;;;5084750;28;20038;-39
2023/04/15 08:38:57;;;;;;;46.55;25.30;;;8.80;99.90;;;;;;5095202;28;20414;-39
2023/04/15 08:41:24;;;;;;;46.25;25.10;;;8.80;99.90;;;;;;5104287;28;20032;-40
2023/04/15 08:44:04;;;;;;;45.97;24.02;;;8.80;99.90;;;;;;5105730;28;20442;-39
2023/04/15 08:46:36;;;;;;;52.33;27.92;;;8.80;99.90;;;;;;5106464;28;20117;-40
2023/04/15 08:49:07;;;;;;;51.35;26.10;;;8.80;99.90;;;;;;5106657;28;20415;-39
2023/04/15 08:51:33;;;;;;;51.92;26.92;;;8.80;99.90;;;;;;5123021;27;20027;-39
2023/04/15 08:54:00;;;;;;;53.38;26.80;;;8.90;99.90;;;;;;5088920;28;20022;-39
2023/04/15 08:56:27;;;;;;;49.22;27.27;;;8.80;99.90;;;;;;5118577;27;20080;-39
2023/04/15 08:58:53;;;;;;;56.35;28.20;;;8.80;99.90;;;;;;5121768;27;20065;-39
2023/04/15 09:01:19;;;;;;;50.45;26.73;;;8.80;99.90;;;;;;5102101;28;20077;-39
2023/04/15 09:03:47;;;;;;;64.38;30.50;;;8.80;99.90;;;;;;5107234;28;20135;-39
2023/04/15 09:06:14;;;;;;;54.20;28.50;;;8.80;99.90;;;;;;5107221;28;20424;-39
2023/04/15 09:08:40;;;;;;;63.17;29.75;;;8.90;99.90;;;;;;5106837;28;20027;-39
2023/04/15 09:11:05;;;;;;;61.70;32.83;;;8.90;99.90;;;;;;5107044;28;20015;-39
2023/04/15 09:13:31;;;;;;;63.80;32.92;;;8.90;99.90;;;;;;5107086;28;20026;-39
2023/04/15 09:16:00;;;;;;;59.65;31.05;;;8.90;99.90;;;;;;5107365;28;20380;-39
2023/04/15 09:18:37;;;;;;;67.63;35.45;;;8.90;99.90;;;;;;5106982;28;20026;-39
2023/04/15 09:21:10;;;;;;;53.88;30.40;;;8.80;99.90;;;;;;5106553;28;20035;-39
2023/04/15 09:23:38;;;;;;;58.25;29.90;;;8.90;99.90;;;;;;5106794;28;20027;-39
2023/04/15 09:26:05;;;;;;;64.90;32.22;;;8.90;99.90;;;;;;5106698;28;20078;-39
2023/04/15 09:28:31;;;;;;;67.93;32.08;;;8.90;99.90;;;;;;5106675;28;20724;-39
2023/04/15 09:30:58;;;;;;;64.05;31.60;;;8.90;99.90;;;;;;5106667;28;20081;-38
2023/04/15 09:33:25;;;;;;;68.57;34.13;;;9.00;99.90;;;;;;5107075;28;20095;-39
2023/04/15 09:36:02;;;;;;;65.35;32.78;;;9.10;99.90;;;;;;5106988;28;20396;-39
2023/04/15 09:38:28;;;;;;;63.22;32.03;;;9.10;99.90;;;;;;5107202;28;20034;-39
2023/04/15 09:40:53;;;;;;;61.25;32.03;;;9.10;99.90;;;;;;5107203;28;20023;-39
2023/04/15 09:43:19;;;;;;;62.85;32.40;;;9.20;99.90;;;;;;5107412;28;20039;-39
2023/04/15 09:45:50;;;;;;;57.28;29.73;;;9.20;99.90;;;;;;5089240;28;20080;-39
2023/04/15 09:48:20;;;;;;;57.15;30.85;;;9.10;99.90;;;;;;5107180;28;20019;-39
2023/04/15 09:50:52;;;;;;;62.97;31.00;;;9.10;99.90;;;;;;5088898;28;20020;-39
2023/04/15 09:53:20;;;;;;;57.78;30.10;;;9.20;99.90;;;;;;5107419;28;20473;-39
2023/04/15 09:55:50;;;;;;;57.67;30.35;;;9.30;99.90;;;;;;5107030;28;20023;-39
2023/04/15 09:58:26;;;;;;;58.27;30.90;;;9.30;99.90;;;;;;5107073;28;20042;-39
2023/04/15 10:00:53;;;;;;;60.45;30.55;;;9.30;99.90;;;;;;5101637;28;20020;-39
2023/04/15 10:03:19;;;;;;;55.20;29.35;;;9.30;99.90;;;;;;5097478;27;20027;-39
2023/04/15 10:05:46;;;;;;;57.55;29.60;;;9.30;99.90;;;;;;5110866;28;20537;-39
2023/04/15 10:08:12;;;;;;;66.30;32.80;;;9.40;99.90;;;;;;5110734;28;20629;-39
2023/04/15 10:10:38;;;;;;;56.58;29.77;;;9.40;99.90;;;;;;5110848;28;20023;-39
2023/04/15 10:13:05;;;;;;;61.70;33.03;;;9.40;99.90;;;;;;5110710;28;20016;-39
2023/04/15 10:15:32;;;;;;;62.92;30.90;;;9.40;99.90;;;;;;5110270;28;20063;-39
2023/04/15 10:18:00;;;;;;;63.47;30.25;;;9.30;99.90;;;;;;5109884;28;20035;-39
2023/04/15 10:20:27;;;;;;;65.80;30.52;;;9.40;99.90;;;;;;5111969;27;20392;-39
2023/04/15 10:22:53;;;;;;;54.55;30.15;;;9.40;99.90;;;;;;5130987;27;20038;-39
2023/04/15 10:25:19;;;;;;;66.90;32.63;;;9.50;99.90;;;;;;5112531;27;20027;-39
2023/04/15 10:27:47;;;;;;;61.58;31.40;;;9.60;99.90;;;;;;5110005;28;20027;-39
2023/04/15 10:30:13;;;;;;;61.10;31.25;;;9.60;99.90;;;;;;5110074;28;20063;-39
2023/04/15 10:32:40;;;;;;;63.85;33.15;;;9.60;99.90;;;;;;5110274;28;20499;-39
2023/04/15 10:35:08;;;;;;;63.15;34.00;;;9.70;99.90;;;;;;5110442;28;20038;-40
2023/04/15 10:37:36;;;;;;;60.25;31.13;;;9.70;99.90;;;;;;5110569;28;20047;-39
2023/04/15 10:40:26;;;;;;;65.45;32.20;;;9.70;99.90;;;;;;5110646;28;20050;-39
2023/04/15 10:42:52;;;;;;;61.47;33.43;;;9.70;99.90;;;;;;5110371;28;20023;-39
2023/04/15 10:45:18;;;;;;;69.05;33.80;;;9.60;99.90;;;;;;5091980;28;20385;-39
2023/04/15 10:47:44;;;;;;;70.32;35.22;;;9.60;99.90;;;;;;5109568;28;20038;-39
2023/04/15 10:50:10;;;;;;;80.20;37.63;;;9.60;99.90;;;;;;5109223;28;20189;-39
2023/04/15 10:52:40;;;;;;;70.97;35.03;;;9.60;99.90;;;;;;5109025;28;20028;-39
2023/04/15 10:55:08;;;;;;;;;;;9.60;99.90;;;;;;5107602;28;20035;-39
2023/04/15 10:57:37;;;;;;;65.22;33.33;;;9.60;99.90;;;;;;5109214;28;19911;-39
2023/04/15 11:00:13;;;;;;;69.18;34.80;;;9.60;99.90;;;;;;5108353;28;20377;-39
2023/04/15 11:02:56;;;;;;;62.40;33.00;;;9.60;99.90;;;;;;5108962;28;20324;-39
2023/04/15 11:05:49;;;;;;;64.32;32.85;;;9.60;99.90;;;;;;5108745;28;20007;-39
2023/04/15 11:08:15;;;;;;;76.95;38.85;;;9.60;99.90;;;;;;5108039;28;20028;-39
2023/04/15 11:10:40;;;;;;;77.95;37.60;;;9.70;99.90;;;;;;5108888;28;20111;-39
2023/04/15 11:13:22;;;;;;;74.55;36.35;;;9.70;99.90;;;;;;5108362;28;20126;-39
2023/04/15 11:15:49;;;;;;;68.05;33.53;;;9.70;99.90;;;;;;5088920;28;20027;-39
2023/04/15 11:18:21;;;;;;;67.47;33.50;;;9.70;99.90;;;;;;5109176;28;20492;-39
2023/04/15 11:20:49;;;;;;;74.25;35.42;;;9.70;99.90;;;;;;5109072;28;20054;-39
2023/04/15 11:23:18;;;;;;;202.75;121.90;;;9.70;99.90;;;;;;5109235;28;20033;-39
2023/04/15 11:25:44;;;;;;;178.93;100.28;;;9.70;99.90;;;;;;5090743;28;20389;-39
2023/04/15 11:28:11;;;;;;;85.22;45.63;;;9.80;99.90;;;;;;5108635;28;20534;-39
2023/04/15 11:30:37;;;;;;;70.18;35.35;;;9.80;99.90;;;;;;5108862;28;20034;-39
2023/04/15 11:33:07;;;;;;;68.88;33.00;;;9.90;99.90;;;;;;5109205;28;20493;-39
2023/04/15 11:35:34;;;;;;;67.05;32.42;;;9.80;99.90;;;;;;5109453;28;20114;-39
2023/04/15 11:38:04;;;;;;;62.85;32.50;;;9.90;99.90;;;;;;5109075;28;20028;-39
2023/04/15 11:40:32;;;;;;;71.30;35.58;;;9.90;99.90;;;;;;5109128;28;20023;-39
2023/04/15 11:43:14;;;;;;;60.78;31.92;;;9.90;99.90;;;;;;5109498;28;20027;-39
2023/04/15 11:45:55;;;;;;;65.40;32.72;;;10.00;99.90;;;;;;5109266;28;20027;-39
2023/04/15 11:48:26;;;;;;;69.30;34.90;;;10.00;99.90;;;;;;5070221;28;20036;-39
2023/04/15 11:50:59;;;;;;;63.65;32.28;;;10.10;99.90;;;;;;5088347;28;20020;-39
2023/04/15 11:53:37;;;;;;;59.90;31.35;;;10.10;99.90;;;;;;5088189;28;20405;-39
2023/04/15 11:56:03;;;;;;;67.72;33.15;;;10.20;99.90;;;;;;5070198;28;20106;-39
2023/04/15 11:58:29;;;;;;;66.50;34.30;;;10.30;99.90;;;;;;5088431;28;20110;-39
2023/04/15 12:00:57;;;;;;;59.33;31.83;;;10.40;99.90;;;;;;5088191;28;20030;-39
2023/04/15 12:03:30;;;;;;;66.40;33.03;;;10.40;99.90;;;;;;5088605;28;20537;-39
2023/04/15 12:06:09;;;;;;;61.15;31.30;;;10.40;99.90;;;;;;5088776;28;20093;-39
2023/04/15 12:08:57;;;;;;;69.70;32.13;;;10.50;99.90;;;;;;5087830;28;20099;-39
2023/04/15 12:11:25;;;;;;;60.50;29.55;;;10.50;99.90;;;;;;5088080;28;20020;-40
2023/04/15 12:13:57;;;;;;;55.00;28.98;;;10.50;99.90;;;;;;5088121;28;20088;-39
2023/04/15 12:16:24;;;;;;;56.33;31.48;;;10.60;99.90;;;;;;5088514;28;20020;-39
2023/04/15 12:18:57;;;;;;;57.28;30.58;;;10.60;99.90;;;;;;5087866;28;20123;-39
2023/04/15 12:21:24;;;;;;;54.20;29.45;;;10.70;99.90;;;;;;5069672;28;20470;-39
2023/04/15 12:23:53;;;;;;;54.80;28.60;;;10.80;99.90;;;;;;5087314;28;20401;-39
2023/04/15 12:26:29;;;;;;;54.88;30.60;;;10.80;99.90;;;;;;5087948;28;20078;-39
2023/04/15 12:29:02;;;;;;;59.13;31.80;;;10.80;99.90;;;;;;5088297;28;20385;-39
2023/04/15 12:31:28;;;;;;;54.67;31.23;;;10.90;99.90;;;;;;5088108;28;20103;-39
2023/04/15 12:33:55;;;;;;;54.25;28.40;;;10.80;99.90;;;;;;5087698;28;20016;-39
2023/04/15 12:36:20;;;;;;;54.35;30.35;;;10.90;99.90;;;;;;5087790;28;20016;-39
2023/04/15 12:38:46;;;;;;;47.95;27.17;;;11.00;99.90;;;;;;5087556;28;20161;-40